createdAt,value
2023-10-02T00:02:37.590Z,90.52
2023-10-02T00:05:09.319Z,89.75
2023-10-02T00:07:38.115Z,90.53
2023-10-02T00:10:05.995Z,89.46
2023-10-02T00:12:35.601Z,89.48
2023-10-02T00:15:13.706Z,90.65
2023-10-02T00:17:45.805Z,89.81
2023-10-02T00:20:22.569Z,89.77
2023-10-02T00:22:51.506Z,91.20
2023-10-02T00:25:21.175Z,90.95
2023-10-02T00:27:52.768Z,92.06
2023-10-02T00:30:22.565Z,91.81
2023-10-02T00:32:50.997Z,90.04
2023-10-02T00:35:17.966Z,90.62
2023-10-02T00:37:45.945Z,90.48
2023-10-02T00:40:23.528Z,90.65
2023-10-02T00:42:56.572Z,91.62
2023-10-02T00:45:25.250Z,91.07
2023-10-02T00:47:54.789Z,91.04
2023-10-02T00:50:23.496Z,90.58
2023-10-02T00:53:00.649Z,90.61
2023-10-02T00:55:33.948Z,90.89
2023-10-02T00:58:04.171Z,90.35
2023-10-02T01:00:36.790Z,90.62
2023-10-02T01:03:10.074Z,91.53
2023-10-02T01:05:48.960Z,90.66
2023-10-02T01:08:37.058Z,90.97
2023-10-02T01:11:04.404Z,91.22
2023-10-02T01:13:33.995Z,91.23
2023-10-02T01:16:08.462Z,91.01
2023-10-02T01:18:39.223Z,91.21
2023-10-02T01:21:13.732Z,90.47
2023-10-02T01:24:06.438Z,90.23
2023-10-02T01:26:37.531Z,90.04
2023-10-02T01:29:07.070Z,90.25
2023-10-02T01:31:37.384Z,89.99
2023-10-02T01:34:05.789Z,90.40
2023-10-02T01:36:36.207Z,90.38
2023-10-02T01:39:16.927Z,90.55
2023-10-02T01:41:49.977Z,90.17
2023-10-02T01:44:21.537Z,90.30
2023-10-02T01:46:51.566Z,90.92
2023-10-02T01:49:28.926Z,91.06
2023-10-02T01:52:03.413Z,90.31
2023-10-02T01:54:30.671Z,91.13
2023-10-02T01:57:01.421Z,91.07
2023-10-02T01:59:29.616Z,89.86
2023-10-02T02:01:58.360Z,89.80
2023-10-02T02:04:30.567Z,91.13
2023-10-02T02:06:59.104Z,91.24
2023-10-02T02:09:34.653Z,90.58
2023-10-02T02:12:12.354Z,90.61
2023-10-02T02:14:53.294Z,89.93
2023-10-02T02:17:29.161Z,90.05
2023-10-02T02:20:00.876Z,91.09
2023-10-02T02:22:32.878Z,90.97
2023-10-02T02:25:00.626Z,90.16
2023-10-02T02:27:27.316Z,89.87
2023-10-02T02:29:58.380Z,90.26
2023-10-02T02:32:53.921Z,91.34
2023-10-02T02:35:22.699Z,90.59
2023-10-02T02:37:51.528Z,90.82
2023-10-02T02:40:26.323Z,90.97
2023-10-02T02:42:54.223Z,91.13
2023-10-02T02:45:32.559Z,90.09
2023-10-02T02:48:06.102Z,91.02
2023-10-02T02:50:41.768Z,91.17
2023-10-02T02:53:38.809Z,91.55
2023-10-02T02:56:18.871Z,90.70
2023-10-02T02:58:47.018Z,91.60
2023-10-02T03:01:23.261Z,91.92
2023-10-02T03:03:54.985Z,91.82
2023-10-02T03:06:25.127Z,90.83
2023-10-02T03:08:53.570Z,91.39
2023-10-02T03:11:23.549Z,91.01
2023-10-02T03:13:51.417Z,91.64
2023-10-02T03:16:20.186Z,91.57
2023-10-02T03:18:49.453Z,91.43
2023-10-02T03:21:23.429Z,91.37
2023-10-02T03:24:01.782Z,91.51
2023-10-02T03:26:32.003Z,90.68
2023-10-02T03:29:02.917Z,91.31
2023-10-02T03:31:53.952Z,91.40
2023-10-02T03:34:29.433Z,89.89
2023-10-02T03:37:14.483Z,90.49
2023-10-02T03:40:02.042Z,90.10
2023-10-02T03:42:34.310Z,89.86
2023-10-02T03:45:05.661Z,90.87
2023-10-02T03:47:35.489Z,90.17
2023-10-02T03:50:04.483Z,90.87
2023-10-02T03:52:33.877Z,89.49
2023-10-02T03:55:17.250Z,90.26
2023-10-02T03:57:56.788Z,90.61
2023-10-02T04:00:27.872Z,90.66
2023-10-02T04:02:59.006Z,91.46
2023-10-02T04:05:55.759Z,91.88
2023-10-02T04:08:32.297Z,91.20
2023-10-02T04:11:04.040Z,92.10
2023-10-02T04:13:34.865Z,91.83
2023-10-02T04:16:21.455Z,92.73
2023-10-02T04:18:48.254Z,92.21
2023-10-02T04:21:20.939Z,93.36
2023-10-02T04:23:47.542Z,92.68
2023-10-02T04:26:20.817Z,92.48
2023-10-02T04:28:55.969Z,92.60
2023-10-02T04:31:28.824Z,92.65
2023-10-02T04:34:15.922Z,93.11
2023-10-02T04:36:44.237Z,92.43
2023-10-02T04:39:31.067Z,92.75
2023-10-02T04:42:13.811Z,92.92
2023-10-02T04:45:00.182Z,91.78
2023-10-02T04:47:28.284Z,91.55
2023-10-02T04:50:06.495Z,92.92
2023-10-02T04:52:59.674Z,92.97
2023-10-02T04:55:43.189Z,91.62
2023-10-02T04:58:16.172Z,92.26
2023-10-02T05:01:03.013Z,91.80
2023-10-02T05:03:54.209Z,91.80
2023-10-02T05:07:00.978Z,91.31
2023-10-02T05:09:27.937Z,91.36
2023-10-02T05:11:58.092Z,91.69
2023-10-02T05:14:28.488Z,91.04
2023-10-02T05:17:18.118Z,92.43
2023-10-02T05:19:58.647Z,90.90
2023-10-02T05:22:27.003Z,91.06
2023-10-02T05:24:59.883Z,91.28
2023-10-02T05:27:31.834Z,91.32
2023-10-02T05:30:02.989Z,90.22
2023-10-02T05:32:33.378Z,90.31
2023-10-02T05:35:12.710Z,90.29
2023-10-02T05:37:47.326Z,89.97
2023-10-02T05:40:19.101Z,91.06
2023-10-02T05:43:01.996Z,91.01
2023-10-02T05:45:47.048Z,91.07
2023-10-02T05:48:26.899Z,90.47
2023-10-02T05:50:59.103Z,90.94
2023-10-02T05:53:27.954Z,90.63
2023-10-02T05:56:08.382Z,90.00
2023-10-02T05:58:40.634Z,89.43
2023-10-02T06:01:19.736Z,89.76
2023-10-02T06:04:06.638Z,90.07
2023-10-02T06:06:37.560Z,89.63
2023-10-02T06:09:14.477Z,90.18
2023-10-02T06:12:01.154Z,89.63
2023-10-02T06:14:27.997Z,89.33
2023-10-02T06:16:54.962Z,88.36
2023-10-02T06:19:21.920Z,88.28
2023-10-02T06:22:05.801Z,88.81
2023-10-02T06:24:32.872Z,87.79
2023-10-02T06:27:00.208Z,87.75
2023-10-02T06:29:33.188Z,87.51
2023-10-02T06:32:00.985Z,87.25
2023-10-02T06:34:38.191Z,87.32
2023-10-02T06:37:13.646Z,87.09
2023-10-02T06:40:05.507Z,86.91
2023-10-02T06:42:32.560Z,87.26
2023-10-02T06:45:02.547Z,86.71
2023-10-02T06:47:31.423Z,85.82
2023-10-02T06:50:22.868Z,85.93
2023-10-02T06:52:53.573Z,87.04
2023-10-02T06:55:20.541Z,86.36
2023-10-02T06:57:53.810Z,84.68
2023-10-02T07:00:37.377Z,84.95
2023-10-02T07:03:05.540Z,84.95
2023-10-02T07:05:35.124Z,84.36
2023-10-02T07:08:18.848Z,83.66
2023-10-02T07:10:47.593Z,83.38
2023-10-02T07:13:21.278Z,82.13
2023-10-02T07:16:00.800Z,80.92
2023-10-02T07:18:46.735Z,80.11
2023-10-02T07:21:15.089Z,80.12
2023-10-02T07:23:42.191Z,79.78
2023-10-02T07:26:20.677Z,79.93
2023-10-02T07:28:52.481Z,79.88
2023-10-02T07:31:24.072Z,80.28
2023-10-02T07:33:56.396Z,79.96
2023-10-02T07:36:27.760Z,80.08
2023-10-02T07:38:55.803Z,80.36
2023-10-02T07:41:27.274Z,80.23
2023-10-02T07:43:55.946Z,80.04
2023-10-02T07:46:23.476Z,79.97
2023-10-02T07:48:58.677Z,79.90
2023-10-02T07:51:31.893Z,79.96
2023-10-02T07:53:59.828Z,79.49
2023-10-02T07:56:28.472Z,79.22
2023-10-02T07:59:02.748Z,78.33
2023-10-02T08:01:30.520Z,78.13
2023-10-02T08:03:57.811Z,76.96
2023-10-02T08:06:34.829Z,77.75
2023-10-02T08:09:23.392Z,77.09
2023-10-02T08:11:53.596Z,77.28
2023-10-02T08:14:44.472Z,77.17
2023-10-02T08:17:29.214Z,77.84
2023-10-02T08:19:58.194Z,77.76
2023-10-02T08:22:37.273Z,77.13
2023-10-02T08:25:06.160Z,77.29
2023-10-02T08:27:33.369Z,75.72
2023-10-02T08:30:02.394Z,75.36
2023-10-02T08:32:32.167Z,75.14
2023-10-02T08:34:59.258Z,75.54
2023-10-02T08:37:26.925Z,75.79
2023-10-02T08:39:53.803Z,76.45
2023-10-02T08:42:25.190Z,75.66
2023-10-02T08:44:59.390Z,75.79
2023-10-02T08:47:26.490Z,74.43
2023-10-02T08:50:05.950Z,74.11
2023-10-02T08:52:39.944Z,73.54
2023-10-02T08:55:45.259Z,72.47
2023-10-02T08:58:19.830Z,70.83
2023-10-02T09:01:09.795Z,70.41
2023-10-02T09:03:47.128Z,69.55
2023-10-02T09:06:26.988Z,68.71
2023-10-02T09:09:13.266Z,69.53
2023-10-02T09:11:42.234Z,69.40
2023-10-02T09:14:40.875Z,70.54
2023-10-02T09:17:18.624Z,71.48
2023-10-02T09:19:54.374Z,72.13
2023-10-02T09:22:29.021Z,72.23
2023-10-02T09:25:28.402Z,71.60
2023-10-02T09:28:04.854Z,70.76
2023-10-02T09:30:34.981Z,70.81
2023-10-02T09:33:12.546Z,70.31
2023-10-02T09:36:31.553Z,70.74
2023-10-02T09:38:44.171Z,69.33
2023-10-02T09:41:21.496Z,69.05
2023-10-02T09:46:24.311Z,69.93
2023-10-02T09:49:11.030Z,69.12
2023-10-02T09:52:16.168Z,69.53
2023-10-02T09:55:15.588Z,69.64
2023-10-02T09:57:50.684Z,69.10
2023-10-02T10:00:37.683Z,69.19
2023-10-02T10:03:25.647Z,67.76
2023-10-02T10:06:07.308Z,65.71
2023-10-02T10:09:14.639Z,65.13
2023-10-02T10:11:44.880Z,64.27
2023-10-02T10:14:40.144Z,63.59
2023-10-02T10:17:50.804Z,63.14
2023-10-02T10:20:20.998Z,63.95
2023-10-02T10:22:52.575Z,62.84
2023-10-02T10:25:22.492Z,61.50
2023-10-02T10:28:07.653Z,62.61
2023-10-02T10:30:46.806Z,62.82
2023-10-02T10:33:13.475Z,63.36
2023-10-02T10:35:51.175Z,63.79
2023-10-02T10:38:28.130Z,64.54
2023-10-02T10:41:10.593Z,63.91
2023-10-02T10:43:47.020Z,63.35
2023-10-02T10:46:30.704Z,64.45
2023-10-02T10:49:08.621Z,65.03
2023-10-02T10:51:39.772Z,64.20
2023-10-02T10:54:42.933Z,63.77
2023-10-02T10:57:20.734Z,63.56
2023-10-02T10:59:48.214Z,61.60
2023-10-02T11:02:16.779Z,61.60
2023-10-02T11:04:51.121Z,60.73
2023-10-02T11:07:26.353Z,61.23
2023-10-02T11:10:18.623Z,61.31
2023-10-02T11:12:57.595Z,62.62
2023-10-02T11:15:44.320Z,63.25
2023-10-02T11:18:19.922Z,63.99
2023-10-02T11:21:00.470Z,62.33
2023-10-02T11:23:43.173Z,62.12
2023-10-02T11:26:17.155Z,62.08
2023-10-02T11:28:51.277Z,62.86
2023-10-02T11:31:46.910Z,63.48
2023-10-02T11:36:53.563Z,66.00
2023-10-02T11:39:21.045Z,66.26
2023-10-02T11:41:47.915Z,66.37
2023-10-02T11:44:15.638Z,65.66
2023-10-02T11:46:42.630Z,66.17
2023-10-02T11:49:09.753Z,66.29
2023-10-02T11:51:36.366Z,64.64
2023-10-02T11:54:06.817Z,64.96
2023-10-02T11:56:35.513Z,65.27
2023-10-02T11:59:03.856Z,63.76
2023-10-02T12:01:30.638Z,63.22
2023-10-02T12:03:58.326Z,62.99
2023-10-02T12:06:29.446Z,62.74
2023-10-02T12:08:57.957Z,62.43
2023-10-02T12:11:29.591Z,61.52
2023-10-02T12:13:57.607Z,61.84
2023-10-02T12:16:24.731Z,61.47
2023-10-02T12:18:52.293Z,60.02
2023-10-02T12:21:23.208Z,60.39
2023-10-02T12:23:50.101Z,60.28
2023-10-02T12:26:18.198Z,60.46
2023-10-02T12:28:45.832Z,60.84
2023-10-02T12:31:16.292Z,61.43
2023-10-02T12:33:44.545Z,60.82
2023-10-02T12:36:18.456Z,60.86
2023-10-02T12:38:46.106Z,60.47
2023-10-02T12:41:31.654Z,60.75
2023-10-02T12:43:59.438Z,61.46
2023-10-02T12:46:27.372Z,61.13
2023-10-02T12:48:56.376Z,61.72
2023-10-02T12:51:24.067Z,62.24
2023-10-02T12:53:51.667Z,61.97
2023-10-02T12:56:22.022Z,63.03
2023-10-02T12:58:53.270Z,64.16
2023-10-02T13:01:25.746Z,63.61
2023-10-02T13:03:53.102Z,62.75
2023-10-02T13:06:20.318Z,62.27
2023-10-02T13:08:46.962Z,62.02
2023-10-02T13:11:20.006Z,62.09
2023-10-02T13:13:50.381Z,61.92
2023-10-02T13:16:17.843Z,61.40
2023-10-02T13:18:47.519Z,62.37
2023-10-02T13:21:20.272Z,61.53
2023-10-02T13:23:48.140Z,61.85
2023-10-02T13:26:17.455Z,61.28
2023-10-02T13:28:53.416Z,60.58
2023-10-02T13:31:20.357Z,60.04
2023-10-02T13:33:48.368Z,59.53
2023-10-02T13:36:15.536Z,60.49
2023-10-02T13:38:42.348Z,60.12
2023-10-02T13:41:10.169Z,59.95
2023-10-02T13:43:44.951Z,60.04
2023-10-02T13:46:15.469Z,60.36
2023-10-02T13:48:43.008Z,61.21
2023-10-02T13:51:10.333Z,61.33
2023-10-02T13:53:38.620Z,61.29
2023-10-02T13:56:18.110Z,60.67
2023-10-02T13:58:49.657Z,60.58
2023-10-02T14:01:17.572Z,61.08
2023-10-02T14:03:46.947Z,61.91
2023-10-02T14:06:15.273Z,61.89
2023-10-02T14:08:42.256Z,62.45
2023-10-02T14:11:12.463Z,62.74
2023-10-02T14:13:39.129Z,62.69
2023-10-02T14:16:11.805Z,62.39
2023-10-02T14:18:40.102Z,62.14
2023-10-02T14:21:08.263Z,62.18
2023-10-02T14:23:35.858Z,61.97
2023-10-02T14:26:03.618Z,62.81
2023-10-02T14:28:30.522Z,63.69
2023-10-02T14:30:57.393Z,62.63
2023-10-02T14:33:25.184Z,63.75
2023-10-02T14:35:56.751Z,64.21
2023-10-02T14:38:24.969Z,64.69
2023-10-02T14:40:53.681Z,64.68
2023-10-02T14:43:21.838Z,65.31
2023-10-02T14:45:49.082Z,65.54
2023-10-02T14:48:40.940Z,65.93
2023-10-02T14:51:09.971Z,66.07
2023-10-02T14:53:39.492Z,66.07
2023-10-02T14:56:06.437Z,66.47
2023-10-02T14:58:33.604Z,66.33
2023-10-02T15:01:00.473Z,67.10
2023-10-02T15:03:27.077Z,68.03
2023-10-02T15:05:53.831Z,68.09
2023-10-02T15:08:20.634Z,67.62
2023-10-02T15:10:48.070Z,67.77
2023-10-02T15:13:15.398Z,68.57
2023-10-02T15:15:42.076Z,69.31
2023-10-02T15:18:15.174Z,68.97
2023-10-02T15:20:43.145Z,68.72
2023-10-02T15:23:14.353Z,68.87
2023-10-02T15:25:41.700Z,69.72
2023-10-02T15:28:08.408Z,70.12
2023-10-02T15:30:36.303Z,70.22
2023-10-02T15:33:03.083Z,70.40
2023-10-02T15:35:31.376Z,71.27
2023-10-02T15:38:02.626Z,71.35
2023-10-02T15:40:31.804Z,71.57
2023-10-02T15:42:58.566Z,71.91
2023-10-02T15:45:25.336Z,72.68
2023-10-02T15:47:52.973Z,73.01
2023-10-02T15:50:25.055Z,74.27
2023-10-02T15:52:53.062Z,74.64
2023-10-02T15:55:21.511Z,75.05
2023-10-02T15:57:50.169Z,75.01
2023-10-02T16:00:24.807Z,74.89
2023-10-02T16:02:55.350Z,75.00
2023-10-02T16:05:23.203Z,74.42
2023-10-02T16:07:50.648Z,74.12
2023-10-02T16:10:20.039Z,74.70
2023-10-02T16:12:48.006Z,74.26
2023-10-02T16:15:16.698Z,74.57
2023-10-02T16:17:47.491Z,74.84
2023-10-02T16:20:15.955Z,75.21
2023-10-02T16:22:43.773Z,76.17
2023-10-02T16:25:13.347Z,75.88
2023-10-02T16:27:44.391Z,76.62
2023-10-02T16:30:12.790Z,76.14
2023-10-02T16:32:41.427Z,76.30
2023-10-02T16:35:10.858Z,76.58
2023-10-02T16:37:41.717Z,77.73
2023-10-02T16:40:12.124Z,78.23
2023-10-02T16:42:42.175Z,78.15
2023-10-02T16:45:18.302Z,79.80
2023-10-02T16:47:46.247Z,80.37
2023-10-02T16:50:14.433Z,81.14
2023-10-02T16:52:46.775Z,81.02
2023-10-02T16:55:20.866Z,81.73
2023-10-02T16:57:52.081Z,82.23
2023-10-02T17:00:25.838Z,82.68
2023-10-02T17:02:59.198Z,84.00
2023-10-02T17:05:26.545Z,83.44
2023-10-02T17:07:54.988Z,83.85
2023-10-02T17:10:22.951Z,84.85
2023-10-02T17:12:51.848Z,84.55
2023-10-02T17:15:20.010Z,84.80
2023-10-02T17:17:51.571Z,85.29
2023-10-02T17:20:22.008Z,85.65
2023-10-02T17:22:50.792Z,86.00
2023-10-02T17:25:25.325Z,85.95
2023-10-02T17:27:54.384Z,86.07
2023-10-02T17:30:22.212Z,86.97
2023-10-02T17:32:49.348Z,86.98
2023-10-02T17:35:17.903Z,87.41
2023-10-02T17:37:44.486Z,87.32
2023-10-02T17:40:12.120Z,87.54
2023-10-02T17:42:42.174Z,88.13
2023-10-02T17:45:09.731Z,87.61
2023-10-02T17:47:37.988Z,87.94
2023-10-02T17:50:06.493Z,88.47
2023-10-02T17:52:33.445Z,88.37
2023-10-02T17:55:00.668Z,88.71
2023-10-02T17:57:27.227Z,88.97
2023-10-02T17:59:55.262Z,89.32
2023-10-02T18:02:22.242Z,89.62
2023-10-02T18:04:52.714Z,89.79
2023-10-02T18:07:19.449Z,89.96
2023-10-02T18:09:49.129Z,89.53
2023-10-02T18:12:16.216Z,89.66
2023-10-02T18:14:42.790Z,90.23
2023-10-02T18:17:10.944Z,89.63
2023-10-02T18:19:37.728Z,90.43
2023-10-02T18:22:04.370Z,90.83
2023-10-02T18:24:31.747Z,89.99
2023-10-02T18:27:01.054Z,89.45
2023-10-02T18:29:29.802Z,89.81
2023-10-02T18:31:56.841Z,89.00
2023-10-02T18:34:42.348Z,89.78
2023-10-02T18:37:11.885Z,88.78
2023-10-02T18:39:38.471Z,88.77
2023-10-02T18:42:05.932Z,89.09
2023-10-02T18:44:36.259Z,88.96
2023-10-02T18:47:03.501Z,88.61
2023-10-02T18:49:33.351Z,89.93
2023-10-02T18:52:02.561Z,89.60
2023-10-02T18:54:29.552Z,89.57
2023-10-02T18:56:56.305Z,89.30
2023-10-02T18:59:23.121Z,89.19
2023-10-02T19:01:49.768Z,89.29
2023-10-02T19:04:16.453Z,89.18
2023-10-02T19:06:43.095Z,89.70
2023-10-02T19:09:12.483Z,90.28
2023-10-02T19:11:39.284Z,90.42
2023-10-02T19:14:06.686Z,89.85
2023-10-02T19:16:33.630Z,90.68
2023-10-02T19:19:00.572Z,90.11
2023-10-02T19:21:28.942Z,90.38
2023-10-02T19:23:55.632Z,91.52
2023-10-02T19:26:23.310Z,91.58
2023-10-02T19:28:51.102Z,90.66
2023-10-02T19:31:17.846Z,91.33
2023-10-02T19:33:45.126Z,92.11
2023-10-02T19:36:11.785Z,91.72
2023-10-02T19:38:38.840Z,91.11
2023-10-02T19:41:13.280Z,91.05
2023-10-02T19:43:41.917Z,92.39
2023-10-02T19:46:10.335Z,92.20
2023-10-02T19:48:37.097Z,91.61
2023-10-02T19:51:10.696Z,92.09
2023-10-02T19:53:37.569Z,92.72
2023-10-02T19:56:05.293Z,92.26
2023-10-02T19:58:33.180Z,92.34
2023-10-02T20:01:00.835Z,92.66
2023-10-02T20:03:29.396Z,92.37
2023-10-02T20:05:56.488Z,91.51
2023-10-02T20:08:23.599Z,92.79
2023-10-02T20:10:50.125Z,92.20
2023-10-02T20:13:16.816Z,93.03
2023-10-02T20:15:43.479Z,92.04
2023-10-02T20:18:10.236Z,93.13
2023-10-02T20:20:38.286Z,93.07
2023-10-02T20:23:05.056Z,92.14
2023-10-02T20:25:31.650Z,91.90
2023-10-02T20:27:58.249Z,91.63
2023-10-02T20:30:26.476Z,91.43
2023-10-02T20:32:54.376Z,90.53
2023-10-02T20:35:21.665Z,90.04
2023-10-02T20:37:48.605Z,90.12
2023-10-02T20:40:16.435Z,90.30
2023-10-02T20:42:43.356Z,89.53
2023-10-02T20:45:10.472Z,90.23
2023-10-02T20:47:37.355Z,91.44
2023-10-02T20:50:04.460Z,91.72
2023-10-02T20:52:31.125Z,91.23
2023-10-02T20:54:57.783Z,90.63
2023-10-02T20:57:27.075Z,91.29
2023-10-02T20:59:54.974Z,90.94
2023-10-02T21:02:22.976Z,91.03
2023-10-02T21:04:49.627Z,91.97
2023-10-02T21:07:17.011Z,91.30
2023-10-02T21:09:43.680Z,93.73
2023-10-02T21:12:10.212Z,91.62
2023-10-02T21:14:38.281Z,92.38
2023-10-02T21:17:04.898Z,91.87
2023-10-02T21:19:32.341Z,92.88
2023-10-02T21:21:58.948Z,92.01
2023-10-02T21:24:25.526Z,92.45
2023-10-02T21:26:52.354Z,93.12
2023-10-02T21:29:19.182Z,92.05
2023-10-02T21:31:45.820Z,92.43
2023-10-02T21:34:12.410Z,92.34
2023-10-02T21:36:39.985Z,92.12
2023-10-02T21:39:06.746Z,92.44
2023-10-02T21:41:33.439Z,92.97
2023-10-02T21:44:01.368Z,93.04
2023-10-02T21:46:27.946Z,92.55
2023-10-02T21:48:54.456Z,92.17
2023-10-02T21:51:21.047Z,91.94
2023-10-02T21:53:48.048Z,92.78
2023-10-02T21:56:17.770Z,92.20
2023-10-02T21:58:45.102Z,92.06
2023-10-02T22:01:13.025Z,92.64
2023-10-02T22:03:44.738Z,92.51
2023-10-02T22:06:12.070Z,93.37
2023-10-02T22:08:40.146Z,93.28
2023-10-02T22:11:07.074Z,93.72
2023-10-02T22:13:33.750Z,95.12
2023-10-02T22:16:02.082Z,94.04
2023-10-02T22:18:28.836Z,94.97
2023-10-02T22:21:04.444Z,95.21
2023-10-02T22:23:35.049Z,96.13
2023-10-02T22:26:03.932Z,95.46
2023-10-02T22:28:30.499Z,95.24
2023-10-02T22:30:58.795Z,94.90
2023-10-02T22:33:25.408Z,94.92
2023-10-02T22:35:52.217Z,94.21
2023-10-02T22:38:18.901Z,94.29
2023-10-02T22:40:45.505Z,94.68
2023-10-02T22:43:12.206Z,93.59
2023-10-02T22:45:41.514Z,93.03
2023-10-02T22:48:10.149Z,93.55
2023-10-02T22:50:37.435Z,94.20
2023-10-02T22:53:04.239Z,93.74
2023-10-02T22:55:31.112Z,93.63
2023-10-02T22:57:59.671Z,93.20
2023-10-02T23:00:30.867Z,94.13
2023-10-02T23:02:58.697Z,94.02
2023-10-02T23:05:25.782Z,93.48
2023-10-02T23:07:52.554Z,93.52
2023-10-02T23:10:20.130Z,93.43
2023-10-02T23:12:51.667Z,93.18
2023-10-02T23:15:20.631Z,93.58
2023-10-02T23:17:48.589Z,93.95
2023-10-02T23:20:15.875Z,93.36
2023-10-02T23:22:47.584Z,93.08
2023-10-02T23:25:15.417Z,93.70
2023-10-02T23:27:42.038Z,93.02
2023-10-02T23:30:09.729Z,93.87
2023-10-02T23:32:39.557Z,93.36
2023-10-02T23:35:07.052Z,94.18
2023-10-02T23:37:34.448Z,93.82
2023-10-02T23:40:03.201Z,94.37
2023-10-02T23:42:29.788Z,94.51
2023-10-02T23:44:56.474Z,93.86
2023-10-02T23:47:23.225Z,94.92
2023-10-02T23:49:50.052Z,94.67
2023-10-02T23:52:16.766Z,94.48
2023-10-02T23:54:46.822Z,94.57
2023-10-02T23:57:14.908Z,95.13
2023-10-02T23:59:44.327Z,94.99
